createdAt,value
2018-09-16T00:01:35.171Z,100149.45
2018-09-16T00:04:04.446Z,100151.95
2018-09-16T00:06:33.954Z,100154.70
2018-09-16T00:09:03.289Z,100156.95
2018-09-16T00:11:32.241Z,100147.09
2018-09-16T00:14:01.443Z,100154.77
2018-09-16T00:16:30.985Z,100144.37
2018-09-16T00:19:00.619Z,100154.26
2018-09-16T00:21:29.685Z,100151.26
2018-09-16T00:24:05.428Z,100149.05
2018-09-16T00:26:34.630Z,100144.94
2018-09-16T00:29:04.289Z,100144.43
2018-09-16T00:31:33.463Z,100145.80
2018-09-16T00:34:02.401Z,100155.64
2018-09-16T00:36:31.584Z,100158.94
2018-09-16T00:39:01.011Z,100157.55
2018-09-16T00:41:30.242Z,100156.73
2018-09-16T00:43:59.325Z,100155.88
2018-09-16T00:46:28.414Z,100155.62
2018-09-16T00:48:57.560Z,100151.75
2018-09-16T00:51:29.695Z,100147.36
2018-09-16T00:53:59.740Z,100147.36
2018-09-16T00:56:29.022Z,100147.09
2018-09-16T00:58:58.206Z,100147.11
2018-09-16T01:01:27.337Z,100149.58
2018-09-16T01:03:56.482Z,100150.67
2018-09-16T01:06:30.686Z,100149.59
2018-09-16T01:08:59.688Z,100150.97
2018-09-16T01:11:29.373Z,100148.50
2018-09-16T01:13:58.690Z,100145.78
2018-09-16T01:16:27.804Z,100139.19
2018-09-16T01:18:56.908Z,100149.61
2018-09-16T01:21:26.067Z,100144.95
2018-09-16T01:23:55.304Z,100147.97
2018-09-16T01:26:25.033Z,100143.58
2018-09-16T01:28:54.224Z,100142.48
2018-09-16T01:31:23.538Z,100139.19
2018-09-16T01:33:52.632Z,100134.25
2018-09-16T01:36:21.920Z,100137.81
2018-09-16T01:38:53.945Z,100133.70
2018-09-16T01:41:29.261Z,100141.39
2018-09-16T01:43:58.110Z,100146.86
2018-09-16T01:46:27.522Z,100144.94
2018-09-16T01:48:56.501Z,100151.24
2018-09-16T01:51:25.730Z,100145.21
2018-09-16T01:53:54.855Z,100140.01
2018-09-16T01:56:24.742Z,100144.66
2018-09-16T01:58:54.022Z,100148.23
2018-09-16T02:01:23.282Z,100144.43
2018-09-16T02:03:52.603Z,100145.80
2018-09-16T02:06:21.938Z,100139.45
2018-09-16T02:08:51.215Z,100141.94
2018-09-16T02:11:20.519Z,100139.73
2018-09-16T02:13:49.489Z,100138.36
2018-09-16T02:16:18.744Z,100147.43
2018-09-16T02:18:47.909Z,100151.00
2018-09-16T02:21:17.139Z,100150.48
2018-09-16T02:23:46.231Z,100152.70
2018-09-16T02:26:15.299Z,100148.62
2018-09-16T02:28:44.510Z,100149.45
2018-09-16T02:31:13.504Z,100150.30
2018-09-16T02:33:43.283Z,100153.86
2018-09-16T02:36:12.535Z,100155.77
2018-09-16T02:38:41.871Z,100160.42
2018-09-16T02:41:11.278Z,100154.68
2018-09-16T02:43:40.382Z,100153.56
2018-09-16T02:46:09.851Z,100159.60
2018-09-16T02:48:39.775Z,100161.80
2018-09-16T02:51:09.519Z,100156.86
2018-09-16T02:53:38.750Z,100155.24
2018-09-16T02:56:07.763Z,100156.61
2018-09-16T02:58:36.822Z,100162.09
2018-09-16T03:01:06.676Z,100158.52
2018-09-16T03:03:35.736Z,100161.81
2018-09-16T03:06:06.091Z,100160.44
2018-09-16T03:08:35.303Z,100164.27
2018-09-16T03:11:04.499Z,100157.42
2018-09-16T03:13:33.707Z,100148.11
2018-09-16T03:16:02.783Z,100137.70
2018-09-16T03:18:32.412Z,100134.12
2018-09-16T03:21:01.445Z,100137.16
2018-09-16T03:23:30.434Z,100145.64
2018-09-16T03:25:59.466Z,100144.55
2018-09-16T03:28:28.444Z,100156.03
2018-09-16T03:30:57.451Z,100158.52
2018-09-16T03:33:27.161Z,100149.45
2018-09-16T03:35:56.202Z,100146.44
2018-09-16T03:38:25.157Z,100143.16
2018-09-16T03:40:54.258Z,100137.12
2018-09-16T03:43:23.808Z,100141.48
2018-09-16T03:45:52.984Z,100130.53
2018-09-16T03:48:22.024Z,100127.25
2018-09-16T03:50:51.223Z,100128.08
2018-09-16T03:53:26.955Z,100122.31
2018-09-16T03:56:02.477Z,100131.36
2018-09-16T03:58:31.850Z,100136.30
2018-09-16T04:01:01.841Z,100140.94
2018-09-16T04:03:30.983Z,100145.05
2018-09-16T04:06:00.216Z,100141.48
2018-09-16T04:08:29.533Z,100142.30
2018-09-16T04:10:58.768Z,100142.57
2018-09-16T04:13:27.915Z,100138.46
2018-09-16T04:15:57.204Z,100141.20
2018-09-16T04:18:26.931Z,100139.56
2018-09-16T04:20:56.085Z,100142.88
2018-09-16T04:23:25.355Z,100150.53
2018-09-16T04:25:54.887Z,100151.38
2018-09-16T04:28:23.991Z,100145.34
2018-09-16T04:30:59.730Z,100145.07
2018-09-16T04:33:29.133Z,100147.83
2018-09-16T04:35:58.648Z,100152.20
2018-09-16T04:38:27.849Z,100148.39
2018-09-16T04:40:57.222Z,100153.05
2018-09-16T04:43:26.783Z,100159.63
2018-09-16T04:45:55.926Z,100165.92
2018-09-16T04:48:24.933Z,100157.42
2018-09-16T04:50:53.916Z,100161.01
2018-09-16T04:53:23.341Z,100159.36
2018-09-16T04:55:52.438Z,100164.02
2018-09-16T04:58:21.441Z,100162.11
2018-09-16T05:00:50.488Z,100164.85
2018-09-16T05:03:19.529Z,100181.02
2018-09-16T05:05:48.956Z,100187.59
2018-09-16T05:08:18.031Z,100188.42
2018-09-16T05:10:47.076Z,100183.47
2018-09-16T05:13:16.311Z,100188.69
2018-09-16T05:15:51.952Z,100189.23
2018-09-16T05:18:21.366Z,100198.27
2018-09-16T05:20:50.459Z,100201.27
2018-09-16T05:23:19.507Z,100194.98
2018-09-16T05:25:48.577Z,100207.30
2018-09-16T05:28:18.266Z,100212.78
2018-09-16T05:30:47.266Z,100210.05
2018-09-16T05:33:16.451Z,100214.72
2018-09-16T05:35:45.728Z,100209.50
2018-09-16T05:38:15.530Z,100208.67
2018-09-16T05:40:44.778Z,100212.25
2018-09-16T05:43:13.777Z,100217.45
2018-09-16T05:45:43.202Z,100221.56
2018-09-16T05:48:12.265Z,100220.47
2018-09-16T05:50:41.224Z,100222.12
2018-09-16T05:53:10.728Z,100223.48
2018-09-16T05:55:40.716Z,100231.98
2018-09-16T05:58:09.778Z,100234.73
2018-09-16T06:00:39.111Z,100233.91
2018-09-16T06:03:08.308Z,100237.47
2018-09-16T06:05:44.454Z,100233.61
2018-09-16T06:08:13.627Z,100234.44
2018-09-16T06:10:42.787Z,100233.05
2018-09-16T06:13:12.122Z,100238.00
2018-09-16T06:15:41.303Z,100244.58
2018-09-16T06:18:10.507Z,100238.24
2018-09-16T06:20:39.865Z,100239.09
2018-09-16T06:23:08.946Z,100236.61
2018-09-16T06:25:38.110Z,100232.23
2018-09-16T06:28:07.490Z,100232.50
2018-09-16T06:30:37.623Z,100230.31
2018-09-16T06:33:06.329Z,100228.94
2018-09-16T06:35:35.536Z,100223.19
2018-09-16T06:38:04.832Z,100227.05
2018-09-16T06:40:34.342Z,100220.19
2018-09-16T06:43:03.736Z,100225.39
2018-09-16T06:45:33.241Z,100221.28
2018-09-16T06:48:02.187Z,100220.72
2018-09-16T06:50:31.376Z,100224.57
2018-09-16T06:53:01.030Z,100219.63
2018-09-16T06:55:30.784Z,100223.45
2018-09-16T06:57:59.901Z,100228.11
2018-09-16T07:00:29.863Z,100223.72
2018-09-16T07:02:59.148Z,100227.55
2018-09-16T07:05:28.250Z,100230.55
2018-09-16T07:07:57.413Z,100230.53
2018-09-16T07:10:26.508Z,100237.67
2018-09-16T07:12:55.908Z,100233.84
2018-09-16T07:15:25.125Z,100236.86
2018-09-16T07:17:54.168Z,100230.26
2018-09-16T07:20:23.162Z,100239.57
2018-09-16T07:22:52.188Z,100244.52
2018-09-16T07:25:21.666Z,100241.77
2018-09-16T07:27:50.791Z,100244.77
2018-09-16T07:30:20.396Z,100256.52
2018-09-16T07:32:49.698Z,100255.46
2018-09-16T07:35:18.878Z,100250.77
2018-09-16T07:37:48.419Z,100252.12
2018-09-16T07:40:18.083Z,100245.52
2018-09-16T07:42:47.252Z,100240.02
2018-09-16T07:45:16.377Z,100241.38
2018-09-16T07:47:45.357Z,100240.23
2018-09-16T07:50:14.340Z,100241.59
2018-09-16T07:52:43.375Z,100242.40
2018-09-16T07:55:13.072Z,100245.38
2018-09-16T07:57:42.173Z,100244.84
2018-09-16T08:00:16.271Z,100243.17
2018-09-16T08:02:45.433Z,100244.49
2018-09-16T08:05:14.635Z,100241.75
2018-09-16T08:07:43.703Z,100244.50
2018-09-16T08:10:12.953Z,100242.28
2018-09-16T08:12:42.065Z,100246.10
2018-09-16T08:15:11.908Z,100250.19
2018-09-16T08:17:40.961Z,100250.19
2018-09-16T08:20:10.060Z,100251.56
2018-09-16T08:22:39.148Z,100241.44
2018-09-16T08:25:08.302Z,100242.81
2018-09-16T08:27:37.341Z,100242.78
2018-09-16T08:30:06.955Z,100238.64
2018-09-16T08:32:36.285Z,100239.47
2018-09-16T08:35:05.269Z,100240.84
2018-09-16T08:37:34.388Z,100247.98
2018-09-16T08:40:03.748Z,100242.77
2018-09-16T08:42:32.858Z,100240.30
2018-09-16T08:45:02.321Z,100243.86
2018-09-16T08:47:31.531Z,100245.51
2018-09-16T08:50:00.782Z,100238.90
2018-09-16T08:52:29.751Z,100241.64
2018-09-16T08:54:58.853Z,100239.72
2018-09-16T08:57:28.163Z,100245.23
2018-09-16T08:59:57.285Z,100238.65
2018-09-16T09:02:26.326Z,100234.80
2018-09-16T09:04:56.506Z,100232.58
2018-09-16T09:07:26.515Z,100232.28
2018-09-16T09:09:57.282Z,100229.51
2018-09-16T09:12:26.374Z,100230.61
2018-09-16T09:14:55.591Z,100220.17
2018-09-16T09:17:24.900Z,100223.98
2018-09-16T09:19:54.287Z,100221.52
2018-09-16T09:22:23.871Z,100222.31
2018-09-16T09:24:52.929Z,100217.61
2018-09-16T09:27:22.117Z,100218.62
2018-09-16T09:29:51.376Z,100221.06
2018-09-16T09:32:20.561Z,100218.56
2018-09-16T09:34:50.313Z,100214.89
2018-09-16T09:37:19.407Z,100214.85
2018-09-16T09:39:48.922Z,100220.89
2018-09-16T09:42:18.123Z,100220.31
2018-09-16T09:44:47.322Z,100216.47
2018-09-16T09:47:16.615Z,100216.73
2018-09-16T09:49:45.705Z,100216.43
2018-09-16T09:52:14.704Z,100218.35
2018-09-16T09:54:44.300Z,100215.09
2018-09-16T09:57:13.695Z,100213.72
2018-09-16T09:59:42.833Z,100212.61
2018-09-16T10:02:11.993Z,100210.90
2018-09-16T10:04:41.906Z,100210.63
2018-09-16T10:07:11.118Z,100205.95
2018-09-16T10:09:40.152Z,100209.25
2018-09-16T10:12:09.299Z,100202.92
2018-09-16T10:14:38.728Z,100203.48
2018-09-16T10:17:07.689Z,100198.25
2018-09-16T10:19:37.540Z,100194.41
2018-09-16T10:22:06.829Z,100197.16
2018-09-16T10:24:35.801Z,100188.08
2018-09-16T10:27:04.801Z,100189.66
2018-09-16T10:29:34.070Z,100185.80
2018-09-16T10:32:06.145Z,100179.12
2018-09-16T10:34:35.676Z,100176.33
2018-09-16T10:37:05.391Z,100171.34
2018-09-16T10:39:34.376Z,100172.12
2018-09-16T10:42:03.434Z,100170.19
2018-09-16T10:44:32.813Z,100168.48
2018-09-16T10:47:02.065Z,100163.22
2018-09-16T10:49:31.181Z,100162.64
2018-09-16T10:52:00.264Z,100165.10
2018-09-16T10:54:29.279Z,100164.27
2018-09-16T10:56:58.445Z,100158.09
2018-09-16T10:59:27.694Z,100164.30
2018-09-16T11:01:57.505Z,100156.41
2018-09-16T11:04:26.628Z,100160.14
2018-09-16T11:06:55.983Z,100161.34
2018-09-16T11:09:24.981Z,100158.43
2018-09-16T11:11:54.073Z,100161.55
2018-09-16T11:14:23.110Z,100160.33
2018-09-16T11:16:52.304Z,100160.22
2018-09-16T11:19:21.492Z,100153.82
2018-09-16T11:21:50.818Z,100154.03
2018-09-16T11:24:20.511Z,100155.68
2018-09-16T11:26:49.799Z,100153.14
2018-09-16T11:29:19.155Z,100152.53
2018-09-16T11:31:48.277Z,100146.44
2018-09-16T11:34:17.552Z,100145.05
2018-09-16T11:36:46.657Z,100143.11
2018-09-16T11:39:15.817Z,100145.86
2018-09-16T11:41:44.939Z,100142.55
2018-09-16T11:44:14.081Z,100146.09
2018-09-16T11:46:44.510Z,100144.38
2018-09-16T11:49:14.453Z,100136.64
2018-09-16T11:51:43.684Z,100131.90
2018-09-16T11:54:13.087Z,100127.50
2018-09-16T11:56:42.237Z,100131.40
2018-09-16T11:59:11.557Z,100120.61
2018-09-16T12:01:41.209Z,100113.14
2018-09-16T12:04:10.335Z,100111.15
2018-09-16T12:06:39.427Z,100109.98
2018-09-16T12:09:09.916Z,100109.57
2018-09-16T12:11:40.171Z,100098.45
2018-09-16T12:14:09.177Z,100099.92
2018-09-16T12:16:38.280Z,100100.92
2018-09-16T12:19:07.646Z,100100.50
2018-09-16T12:21:36.865Z,100096.77
2018-09-16T12:24:05.968Z,100088.08
2018-09-16T12:26:35.076Z,100083.97
2018-09-16T12:29:04.357Z,100081.55
2018-09-16T12:31:33.527Z,100079.73
2018-09-16T12:34:02.875Z,100074.00
2018-09-16T12:36:32.040Z,100081.19
2018-09-16T12:39:01.276Z,100074.10
2018-09-16T12:41:30.445Z,100076.16
2018-09-16T12:43:59.523Z,100077.73
2018-09-16T12:46:29.075Z,100069.56
2018-09-16T12:48:58.144Z,100070.71
2018-09-16T12:51:27.562Z,100063.81
2018-09-16T12:53:57.246Z,100060.23
2018-09-16T12:56:26.741Z,100058.78
2018-09-16T12:58:57.381Z,100057.36
2018-09-16T13:01:27.524Z,100054.55
2018-09-16T13:03:56.691Z,100048.74
2018-09-16T13:06:27.469Z,100049.30
2018-09-16T13:08:56.490Z,100044.00
2018-09-16T13:11:25.564Z,100048.66
2018-09-16T13:14:01.350Z,100040.82
2018-09-16T13:16:31.258Z,100041.87
2018-09-16T13:19:00.465Z,100042.39
2018-09-16T13:21:30.476Z,100032.72
2018-09-16T13:23:59.861Z,100029.14
2018-09-16T13:26:29.515Z,100025.81
2018-09-16T13:28:58.919Z,100025.25
2018-09-16T13:31:28.217Z,100016.26
2018-09-16T13:33:57.631Z,100010.73
2018-09-16T13:36:27.068Z,100003.01
2018-09-16T13:38:56.224Z,100006.33
2018-09-16T13:41:25.250Z,100000.32
2018-09-16T13:43:54.452Z,99999.02
2018-09-16T13:46:23.652Z,99999.58
2018-09-16T13:48:52.951Z,99998.61
2018-09-16T13:51:22.082Z,99995.47
2018-09-16T13:53:51.306Z,99985.49
2018-09-16T13:56:20.523Z,99975.09
2018-09-16T13:58:49.883Z,99985.23
2018-09-16T14:01:19.464Z,99978.97
2018-09-16T14:03:48.483Z,99987.38
2018-09-16T14:06:17.469Z,99976.48
2018-09-16T14:08:46.464Z,99978.80
2018-09-16T14:11:15.616Z,99970.59
2018-09-16T14:13:45.013Z,99972.25
2018-09-16T14:16:14.059Z,99966.80
2018-09-16T14:18:43.407Z,99969.78
2018-09-16T14:21:12.612Z,99961.20
2018-09-16T14:23:42.098Z,99965.08
2018-09-16T14:26:17.654Z,99963.44
2018-09-16T14:28:46.876Z,99965.09
2018-09-16T14:31:15.973Z,99959.55
2018-09-16T14:33:45.254Z,99958.27
2018-09-16T14:36:14.576Z,99952.86
2018-09-16T14:38:43.893Z,99949.71
2018-09-16T14:41:13.168Z,99951.23
2018-09-16T14:43:42.364Z,99953.14
2018-09-16T14:46:11.603Z,99949.99
2018-09-16T14:48:40.780Z,99949.83
2018-09-16T14:51:09.951Z,99951.73
2018-09-16T14:53:39.097Z,99937.98
2018-09-16T14:56:08.299Z,99933.59
2018-09-16T14:58:37.461Z,99926.98
2018-09-16T15:01:06.786Z,99929.70
2018-09-16T15:03:36.304Z,99924.91
2018-09-16T15:06:05.254Z,99924.83
2018-09-16T15:08:34.489Z,99922.06
2018-09-16T15:11:03.798Z,99925.91
2018-09-16T15:13:32.959Z,99920.86
2018-09-16T15:16:02.467Z,99917.45
2018-09-16T15:18:31.979Z,99914.30
2018-09-16T15:21:01.077Z,99920.33
2018-09-16T15:23:30.267Z,99911.39
2018-09-16T15:25:59.417Z,99914.92
2018-09-16T15:28:28.449Z,99908.44
2018-09-16T15:30:57.981Z,99903.73
2018-09-16T15:33:28.572Z,99902.09
2018-09-16T15:35:57.554Z,99895.28
2018-09-16T15:38:26.714Z,99902.02
2018-09-16T15:40:55.869Z,99893.82
2018-09-16T15:43:24.879Z,99882.59
2018-09-16T15:45:54.250Z,99884.93
2018-09-16T15:48:23.393Z,99881.69
2018-09-16T15:50:52.597Z,99886.96
2018-09-16T15:53:21.677Z,99888.25
2018-09-16T15:55:50.635Z,99883.12
2018-09-16T15:58:19.706Z,99882.69
2018-09-16T16:00:48.736Z,99881.39
2018-09-16T16:03:18.456Z,99877.86
2018-09-16T16:05:47.624Z,99874.62
2018-09-16T16:08:16.954Z,99881.27
2018-09-16T16:10:46.096Z,99875.83
2018-09-16T16:13:15.130Z,99880.53
2018-09-16T16:15:44.898Z,99881.17
2018-09-16T16:18:13.949Z,99876.34
2018-09-16T16:20:42.784Z,99871.77
2018-09-16T16:23:11.823Z,99878.83
2018-09-16T16:25:40.910Z,99877.84
2018-09-16T16:28:10.120Z,99881.77
2018-09-16T16:30:39.366Z,99875.25
2018-09-16T16:33:08.720Z,99878.70
2018-09-16T16:35:37.841Z,99877.70
2018-09-16T16:38:06.864Z,99876.47
2018-09-16T16:40:36.321Z,99878.48
2018-09-16T16:43:05.403Z,99877.72
2018-09-16T16:45:34.862Z,99871.63
2018-09-16T16:48:04.068Z,99873.09
2018-09-16T16:50:33.375Z,99873.73
2018-09-16T16:53:02.970Z,99867.52
2018-09-16T16:55:32.146Z,99865.95
2018-09-16T16:58:01.302Z,99869.08
2018-09-16T17:00:30.739Z,99862.94
2018-09-16T17:02:59.776Z,99869.66
2018-09-16T17:05:28.859Z,99867.59
2018-09-16T17:07:58.329Z,99867.98
2018-09-16T17:10:28.015Z,99870.06
2018-09-16T17:12:57.414Z,99867.42
2018-09-16T17:15:26.999Z,99860.77
2018-09-16T17:17:56.241Z,99868.59
2018-09-16T17:20:25.853Z,99869.59
2018-09-16T17:22:57.763Z,99869.47
2018-09-16T17:25:26.734Z,99873.45
2018-09-16T17:27:55.896Z,99877.71
2018-09-16T17:30:24.885Z,99872.05
2018-09-16T17:32:53.931Z,99869.45
2018-09-16T17:35:23.179Z,99877.36
2018-09-16T17:37:52.601Z,99881.32
2018-09-16T17:40:21.753Z,99889.94
2018-09-16T17:42:50.892Z,99891.38
2018-09-16T17:45:20.376Z,99894.00
2018-09-16T17:47:49.688Z,99888.58
2018-09-16T17:50:18.798Z,99893.59
2018-09-16T17:52:48.445Z,99898.63
2018-09-16T17:55:17.677Z,99894.30
2018-09-16T17:57:47.126Z,99895.70
2018-09-16T18:00:16.398Z,99901.63
2018-09-16T18:02:45.639Z,99900.33
2018-09-16T18:05:14.569Z,99896.05
2018-09-16T18:07:43.770Z,99895.02
2018-09-16T18:10:12.831Z,99896.95
2018-09-16T18:12:42.407Z,99896.19
2018-09-16T18:15:11.705Z,99903.13
2018-09-16T18:17:41.471Z,99900.69
2018-09-16T18:20:10.535Z,99901.30
2018-09-16T18:22:40.232Z,99897.75
2018-09-16T18:25:09.141Z,99901.12
2018-09-16T18:27:38.467Z,99899.24
2018-09-16T18:30:07.926Z,99906.97
2018-09-16T18:32:37.028Z,99897.66
2018-09-16T18:35:06.636Z,99903.18
2018-09-16T18:37:37.129Z,99903.84
2018-09-16T18:40:06.609Z,99904.19
2018-09-16T18:42:35.837Z,99906.45
2018-09-16T18:45:05.358Z,99902.67
2018-09-16T18:47:34.485Z,99901.13
2018-09-16T18:50:03.563Z,99895.98
2018-09-16T18:52:32.970Z,99899.39
2018-09-16T18:55:02.151Z,99896.16
2018-09-16T18:57:32.055Z,99898.42
2018-09-16T19:00:01.318Z,99900.72
2018-09-16T19:02:30.294Z,99893.09
2018-09-16T19:04:59.451Z,99892.02
2018-09-16T19:07:28.623Z,99895.92
2018-09-16T19:09:58.011Z,99898.67
2018-09-16T19:12:27.196Z,99900.91
2018-09-16T19:14:56.511Z,99890.20
2018-09-16T19:17:25.762Z,99894.37
2018-09-16T19:19:55.092Z,99894.11
2018-09-16T19:22:24.416Z,99897.96
2018-09-16T19:24:53.595Z,99898.28
2018-09-16T19:27:22.681Z,99895.53
2018-09-16T19:29:52.000Z,99894.95
2018-09-16T19:32:21.048Z,99894.16
2018-09-16T19:34:50.114Z,99889.45
2018-09-16T19:37:19.005Z,99885.64
2018-09-16T19:39:48.746Z,99882.03
2018-09-16T19:42:17.985Z,99879.55
2018-09-16T19:44:47.174Z,99877.07
2018-09-16T19:47:16.409Z,99879.81
2018-09-16T19:49:45.574Z,99875.70
2018-09-16T19:52:14.881Z,99868.83
2018-09-16T19:54:44.163Z,99854.66
2018-09-16T19:57:13.703Z,99860.59
2018-09-16T19:59:43.095Z,99855.69
2018-09-16T20:02:12.381Z,99859.80
2018-09-16T20:04:41.711Z,99854.33
2018-09-16T20:07:10.973Z,99860.38
2018-09-16T20:09:40.129Z,99859.59
2018-09-16T20:12:09.984Z,99862.06
2018-09-16T20:14:39.069Z,99855.48
2018-09-16T20:17:08.300Z,99854.98
2018-09-16T20:19:37.511Z,99856.08
2018-09-16T20:22:08.413Z,99856.64
2018-09-16T20:24:37.466Z,99853.38
2018-09-16T20:27:07.509Z,99855.31
2018-09-16T20:29:37.184Z,99857.50
2018-09-16T20:32:06.544Z,99854.48
2018-09-16T20:34:35.569Z,99845.53
2018-09-16T20:37:04.931Z,99858.89
2018-09-16T20:39:34.008Z,99854.53
2018-09-16T20:42:03.382Z,99853.72
2018-09-16T20:44:32.608Z,99861.97
2018-09-16T20:47:02.042Z,99850.75
2018-09-16T20:49:31.379Z,99851.85
2018-09-16T20:52:00.729Z,99849.94
2018-09-16T20:54:30.199Z,99850.54
2018-09-16T20:56:59.636Z,99851.67
2018-09-16T20:59:35.466Z,99849.77
2018-09-16T21:02:04.686Z,99848.98
2018-09-16T21:04:34.096Z,99847.08
2018-09-16T21:07:03.294Z,99848.45
2018-09-16T21:09:32.586Z,99843.83
2018-09-16T21:12:01.778Z,99845.75
2018-09-16T21:14:31.938Z,99841.13
2018-09-16T21:17:01.078Z,99835.91
2018-09-16T21:19:30.141Z,99829.91
2018-09-16T21:21:59.398Z,99833.21
2018-09-16T21:24:28.700Z,99825.81
2018-09-16T21:26:57.919Z,99826.67
2018-09-16T21:29:29.607Z,99824.48
2018-09-16T21:31:58.535Z,99825.03
2018-09-16T21:34:27.599Z,99831.08
2018-09-16T21:36:56.767Z,99832.17
2018-09-16T21:39:25.999Z,99824.25
2018-09-16T21:41:55.107Z,99830.03
2018-09-16T21:44:24.454Z,99828.42
2018-09-16T21:46:53.607Z,99823.21
2018-09-16T21:49:23.080Z,99832.55
2018-09-16T21:51:52.215Z,99828.98
2018-09-16T21:54:21.908Z,99830.67
2018-09-16T21:56:51.212Z,99829.58
2018-09-16T21:59:20.267Z,99820.25
2018-09-16T22:01:49.510Z,99819.98
2018-09-16T22:04:19.466Z,99815.88
2018-09-16T22:06:48.785Z,99810.97
2018-09-16T22:09:18.097Z,99817.02
2018-09-16T22:11:47.202Z,99816.74
2018-09-16T22:14:17.836Z,99823.88
2018-09-16T22:16:47.107Z,99820.63
2018-09-16T22:19:16.454Z,99819.81
2018-09-16T22:21:45.859Z,99817.93
2018-09-16T22:24:15.383Z,99815.20
2018-09-16T22:26:44.474Z,99813.00
2018-09-16T22:29:13.963Z,99814.38
2018-09-16T22:31:43.570Z,99818.25
2018-09-16T22:34:14.370Z,99823.47
2018-09-16T22:36:43.628Z,99823.52
2018-09-16T22:39:12.892Z,99821.09
2018-09-16T22:41:42.070Z,99817.30
2018-09-16T22:44:11.443Z,99813.46
2018-09-16T22:46:40.926Z,99813.19
2018-09-16T22:49:10.066Z,99809.38
2018-09-16T22:51:39.294Z,99810.20
2018-09-16T22:54:08.461Z,99810.48
2018-09-16T22:56:37.825Z,99806.92
2018-09-16T22:59:07.188Z,99808.84
2018-09-16T23:01:36.403Z,99810.22
2018-09-16T23:04:05.465Z,99806.65
2018-09-16T23:06:34.764Z,99811.34
2018-09-16T23:09:11.212Z,99809.16
2018-09-16T23:11:42.485Z,99807.52
2018-09-16T23:14:11.927Z,99808.06
2018-09-16T23:16:41.783Z,99804.50
2018-09-16T23:19:10.780Z,99801.75
2018-09-16T23:21:39.973Z,99802.61
2018-09-16T23:24:09.120Z,99799.60
2018-09-16T23:26:38.158Z,99800.97
2018-09-16T23:29:07.406Z,99800.70
2018-09-16T23:31:36.614Z,99800.70
2018-09-16T23:34:06.396Z,99798.27
2018-09-16T23:36:35.595Z,99801.56
2018-09-16T23:39:05.675Z,99801.84
2018-09-16T23:41:34.799Z,99802.98
2018-09-16T23:44:04.007Z,99806.86
2018-09-16T23:46:34.102Z,99809.33
2018-09-16T23:49:03.155Z,99817.56
2018-09-16T23:51:32.796Z,99817.56
2018-09-16T23:54:01.950Z,99810.16
2018-09-16T23:56:31.205Z,99812.94
2018-09-16T23:59:00.155Z,99810.48
